Time;durP1;ratioP1;P1;durP2;ratioP2;P2;SDS_P1;SDS_P2;PMS_P1;PMS_P2;Temp;Humidity;BMP_temperature;BMP_pressure;BME280_temperature;BME280_humidity;BME280_pressure;Samples;Min_cycle;Max_cycle;Signal;HPM_P1;HPM_P2
2022/03/05 00:00:17;;;;;;;12.82;8.52;;;-2.60;99.90;;;;;;4878921;29;20053;-80
2022/03/05 00:02:45;;;;;;;17.58;9.50;;;-2.60;99.90;;;;;;4879300;29;20064;-80
2022/03/05 00:05:13;;;;;;;18.48;8.07;;;-2.50;99.90;;;;;;4878028;29;20057;-80
2022/03/05 00:07:41;;;;;;;20.73;12.30;;;-2.50;99.90;;;;;;4878143;29;20057;-80
2022/03/05 00:10:09;;;;;;;12.45;7.95;;;-2.60;99.90;;;;;;4878324;29;20056;-80
2022/03/05 00:12:37;;;;;;;16.63;9.05;;;-2.60;99.90;;;;;;4878527;29;20663;-80
2022/03/05 00:15:05;;;;;;;18.52;8.07;;;-2.60;99.90;;;;;;4878861;29;20048;-80
2022/03/05 00:17:33;;;;;;;13.93;7.30;;;-2.60;99.90;;;;;;4878817;29;20056;-80
2022/03/05 00:20:00;;;;;;;11.93;8.23;;;-2.60;99.90;;;;;;4877681;29;20052;-80
2022/03/05 00:22:28;;;;;;;17.45;9.52;;;-2.50;99.90;;;;;;4878808;29;20065;-80
2022/03/05 00:24:56;;;;;;;19.13;8.13;;;-2.50;99.90;;;;;;4877648;29;20049;-80
2022/03/05 00:27:24;;;;;;;16.90;8.50;;;-2.60;99.90;;;;;;4878966;29;20049;-80
2022/03/05 00:29:52;;;;;;;17.08;9.07;;;-2.50;99.90;;;;;;4877915;29;20426;-79
2022/03/05 00:32:20;;;;;;;10.00;7.70;;;-2.60;99.90;;;;;;4877680;29;20049;-80
2022/03/05 00:34:48;;;;;;;20.40;10.95;;;-2.50;99.90;;;;;;4877811;29;20092;-80
2022/03/05 00:37:16;;;;;;;16.20;8.15;;;-2.60;99.90;;;;;;4878029;29;20061;-80
2022/03/05 00:39:44;;;;;;;15.23;8.68;;;-2.50;99.90;;;;;;4877000;29;20059;-80
2022/03/05 00:42:11;;;;;;;14.02;10.05;;;-2.50;99.90;;;;;;4878329;29;20060;-81
2022/03/05 00:44:39;;;;;;;18.42;12.18;;;-2.60;99.90;;;;;;4877860;29;20056;-78
2022/03/05 00:47:14;;;;;;;11.52;9.80;;;-2.70;99.90;;;;;;4878039;29;20053;-81
2022/03/05 00:49:41;;;;;;;14.40;8.93;;;-2.60;99.90;;;;;;4868418;29;20400;-78
2022/03/05 00:52:11;;;;;;;17.08;9.75;;;-2.60;99.90;;;;;;4859438;29;20068;-78
2022/03/05 00:54:39;;;;;;;15.57;10.05;;;-2.60;99.90;;;;;;4859601;29;20597;-78
2022/03/05 00:57:07;;;;;;;13.60;8.63;;;-2.60;99.90;;;;;;4858878;29;20045;-78
2022/03/05 00:59:35;;;;;;;14.70;7.65;;;-2.60;99.90;;;;;;4866871;29;20053;-78
2022/03/05 01:02:03;;;;;;;24.40;10.07;;;-2.70;99.90;;;;;;4867180;29;20403;-78
2022/03/05 01:04:31;;;;;;;9.18;6.80;;;-2.60;99.90;;;;;;4869457;29;20494;-78
2022/03/05 01:06:59;;;;;;;8.95;7.50;;;-2.70;99.90;;;;;;4859382;29;20052;-78
2022/03/05 01:09:27;;;;;;;18.35;9.50;;;-2.70;99.90;;;;;;4858240;29;20058;-78
2022/03/05 01:11:55;;;;;;;14.75;9.68;;;-2.70;99.90;;;;;;4874546;29;20049;-78
2022/03/05 01:14:22;;;;;;;15.10;11.20;;;-2.70;99.90;;;;;;4877776;29;20049;-78
2022/03/05 01:16:50;;;;;;;15.38;8.85;;;-2.70;99.90;;;;;;4877541;29;20057;-78
2022/03/05 01:19:18;;;;;;;21.08;11.55;;;-2.70;99.90;;;;;;4877160;29;20064;-78
2022/03/05 01:21:45;;;;;;;15.98;8.85;;;-2.90;99.90;;;;;;4875132;29;20518;-78
2022/03/05 01:24:13;;;;;;;22.02;9.30;;;-2.90;99.90;;;;;;4863628;29;20045;-78
2022/03/05 01:26:41;;;;;;;17.05;8.85;;;-2.90;99.90;;;;;;4868815;29;20045;-78
2022/03/05 01:29:08;;;;;;;18.80;11.77;;;-2.90;99.90;;;;;;4858493;29;20048;-78
2022/03/05 01:31:36;;;;;;;11.68;8.35;;;-2.80;99.90;;;;;;4858532;29;20074;-78
2022/03/05 01:34:04;;;;;;;11.90;8.52;;;-2.90;99.90;;;;;;4864597;29;20403;-78
2022/03/05 01:36:32;;;;;;;22.33;12.00;;;-2.80;99.90;;;;;;4876971;29;20061;-78
2022/03/05 01:38:59;;;;;;;18.45;10.45;;;-2.80;99.90;;;;;;4877234;29;20049;-78
2022/03/05 01:41:28;;;;;;;14.93;9.35;;;-2.80;99.90;;;;;;4876300;29;20064;-78
2022/03/05 01:43:56;;;;;;;23.05;10.70;;;-2.80;99.90;;;;;;4876751;29;20479;-78
2022/03/05 01:46:31;;;;;;;17.80;13.05;;;-2.90;99.90;;;;;;4877239;29;20049;-78
2022/03/05 01:48:59;;;;;;;11.90;8.88;;;-2.90;99.90;;;;;;4860917;29;20037;-78
2022/03/05 01:51:27;;;;;;;20.35;11.68;;;-3.00;99.90;;;;;;4876929;29;20056;-78
2022/03/05 01:53:55;;;;;;;16.13;11.50;;;-3.10;99.90;;;;;;4876850;29;20447;-78
2022/03/05 01:56:25;;;;;;;10.60;7.03;;;-3.10;99.90;;;;;;4876188;29;20502;-78
2022/03/05 01:58:53;;;;;;;18.80;10.68;;;-3.10;99.90;;;;;;4877125;29;20053;-78
2022/03/05 02:01:23;;;;;;;11.85;10.10;;;-3.00;99.90;;;;;;4863635;29;20053;-77
2022/03/05 02:03:51;;;;;;;12.95;7.50;;;-3.00;99.90;;;;;;4858036;29;20057;-78
2022/03/05 02:06:19;;;;;;;9.93;7.57;;;-3.00;99.90;;;;;;4858160;29;20049;-77
2022/03/05 02:08:48;;;;;;;22.30;9.02;;;-3.00;99.90;;;;;;4857675;29;20045;-78
2022/03/05 02:11:16;;;;;;;9.60;8.18;;;-3.10;99.90;;;;;;4857838;29;20083;-78
2022/03/05 02:14:02;;;;;;;15.88;6.97;;;-3.00;99.90;;;;;;4868001;29;20053;-78
2022/03/05 02:17:27;;;;;;;17.85;10.38;;;-3.00;99.90;;;;;;4857879;29;20037;-78
2022/03/05 02:21:04;;;;;;;13.48;10.43;;;-3.00;99.90;;;;;;4857301;29;20061;-78
2022/03/05 02:24:37;;;;;;;16.38;8.10;;;-3.20;99.90;;;;;;4857718;29;20050;-78
2022/03/05 02:27:07;;;;;;;17.67;9.05;;;-3.30;99.90;;;;;;4858040;29;20053;-78
2022/03/05 02:29:36;;;;;;;19.15;8.70;;;-3.40;99.90;;;;;;4857078;29;20046;-78
2022/03/05 02:32:04;;;;;;;24.55;11.65;;;-3.40;99.90;;;;;;4857695;29;20049;-78
2022/03/05 02:34:32;;;;;;;20.10;9.80;;;-3.40;99.90;;;;;;4841112;29;20054;-78
2022/03/05 02:37:00;;;;;;;13.98;9.30;;;-3.40;99.90;;;;;;4857545;29;20385;-78
2022/03/05 02:39:28;;;;;;;16.80;10.15;;;-3.50;99.90;;;;;;4857342;29;20061;-78
2022/03/05 02:41:56;;;;;;;15.10;8.52;;;-3.60;99.90;;;;;;4857255;29;20049;-78
2022/03/05 02:44:24;;;;;;;17.63;8.77;;;-3.70;99.90;;;;;;4857662;29;20053;-78
2022/03/05 02:46:51;;;;;;;17.08;10.05;;;-3.80;99.90;;;;;;4869642;29;20052;-78
2022/03/05 02:49:19;;;;;;;14.50;10.35;;;-3.70;99.90;;;;;;4875658;29;20056;-78
2022/03/05 02:51:47;;;;;;;14.02;7.85;;;-3.90;99.90;;;;;;4876028;29;20049;-78
2022/03/05 02:54:15;;;;;;;17.48;10.15;;;-4.00;99.90;;;;;;4876702;29;20064;-78
2022/03/05 02:56:42;;;;;;;13.43;8.70;;;-4.10;99.90;;;;;;4876667;29;20060;-78
2022/03/05 02:59:10;;;;;;;15.55;7.63;;;-4.20;99.90;;;;;;4879938;29;20060;-77
2022/03/05 03:01:38;;;;;;;18.88;10.55;;;-4.30;99.90;;;;;;4879878;29;20052;-78
2022/03/05 03:04:06;;;;;;;14.52;9.65;;;-4.40;99.90;;;;;;4879766;29;20041;-78
2022/03/05 03:06:34;;;;;;;16.65;10.43;;;-4.40;99.90;;;;;;4879557;29;20471;-78
2022/03/05 03:09:02;;;;;;;14.48;7.90;;;-4.30;99.90;;;;;;4879329;29;20055;-77
2022/03/05 03:11:30;;;;;;;19.40;9.63;;;-4.40;99.90;;;;;;4879378;29;20049;-77
2022/03/05 03:13:58;;;;;;;22.13;10.52;;;-4.30;99.90;;;;;;4879761;29;20522;-78
2022/03/05 03:16:26;;;;;;;14.68;8.60;;;-4.30;99.90;;;;;;4879598;29;20041;-78
2022/03/05 03:18:54;;;;;;;20.88;10.68;;;-4.30;99.90;;;;;;4879193;29;20049;-77
2022/03/05 03:21:22;;;;;;;21.92;11.95;;;-4.40;99.90;;;;;;4879148;29;20072;-78
2022/03/05 03:23:49;;;;;;;14.80;10.00;;;-4.40;99.90;;;;;;4879444;29;20049;-77
2022/03/05 03:26:17;;;;;;;17.35;8.88;;;-4.40;99.90;;;;;;4879094;29;20056;-78
2022/03/05 03:28:45;;;;;;;18.08;10.38;;;-4.30;99.90;;;;;;4878782;29;20174;-77
2022/03/05 03:31:12;;;;;;;20.65;9.73;;;-4.30;99.90;;;;;;4879526;29;20490;-78
2022/03/05 03:33:41;;;;;;;18.63;10.48;;;-4.40;99.90;;;;;;4862248;29;20806;-77
2022/03/05 03:36:08;;;;;;;18.45;11.25;;;-4.40;99.90;;;;;;4879027;29;20049;-77
2022/03/05 03:38:36;;;;;;;14.82;8.05;;;-4.40;99.90;;;;;;4879386;29;20064;-78
2022/03/05 03:41:04;;;;;;;16.05;9.77;;;-4.50;99.90;;;;;;4878307;29;20064;-78
2022/03/05 03:43:31;;;;;;;15.73;10.40;;;-4.50;99.90;;;;;;4879449;29;20060;-78
2022/03/05 03:45:59;;;;;;;24.48;12.48;;;-4.50;99.90;;;;;;4878573;29;20088;-77
2022/03/05 03:48:27;;;;;;;19.88;8.38;;;-4.40;99.90;;;;;;4878764;29;20045;-77
2022/03/05 03:50:55;;;;;;;9.25;7.25;;;-4.30;99.90;;;;;;4861004;29;20710;-78
2022/03/05 03:53:23;;;;;;;13.73;9.02;;;-4.20;99.90;;;;;;4862200;29;20053;-77
2022/03/05 03:55:51;;;;;;;16.58;9.90;;;-4.10;99.90;;;;;;4867704;29;20049;-77
2022/03/05 03:58:19;;;;;;;19.92;9.88;;;-4.10;99.90;;;;;;4876259;29;20049;-77
2022/03/05 04:00:47;;;;;;;11.82;9.60;;;-4.00;99.90;;;;;;4872503;29;20419;-78
2022/03/05 04:03:15;;;;;;;25.23;11.57;;;-3.90;99.90;;;;;;4870137;29;20476;-77
2022/03/05 04:05:42;;;;;;;17.20;9.80;;;-3.90;99.90;;;;;;4859957;29;20527;-77
2022/03/05 04:10:56;;;;;;;13.73;9.98;;;-4.00;99.90;;;;;;4859505;29;20077;-78
2022/03/05 04:13:24;;;;;;;22.67;12.02;;;-4.10;99.90;;;;;;4859824;29;20064;-77
2022/03/05 04:15:52;;;;;;;20.33;9.95;;;-4.30;99.90;;;;;;4868204;29;20069;-79
2022/03/05 04:18:20;;;;;;;38.95;12.55;;;-4.20;99.90;;;;;;4855838;29;20049;-78
2022/03/05 04:20:48;;;;;;;20.08;14.43;;;-4.30;99.90;;;;;;4862376;29;20060;-77
2022/03/05 04:23:16;;;;;;;29.05;13.13;;;-4.30;99.90;;;;;;4874811;29;20495;-77
2022/03/05 04:25:43;;;;;;;19.33;11.20;;;-4.30;99.90;;;;;;4866798;29;20057;-78
2022/03/05 04:28:11;;;;;;;24.38;13.77;;;-4.30;99.90;;;;;;4874756;29;20046;-78
2022/03/05 04:30:39;;;;;;;19.40;11.43;;;-4.30;99.90;;;;;;4877529;29;20064;-77
2022/03/05 04:33:06;;;;;;;23.92;11.07;;;-4.30;99.90;;;;;;4877960;29;20064;-77
2022/03/05 04:35:34;;;;;;;28.42;12.65;;;-4.20;99.90;;;;;;4878330;29;20057;-78
2022/03/05 04:38:03;;;;;;;17.58;10.20;;;-4.20;99.90;;;;;;4876855;29;20049;-78
2022/03/05 04:40:31;;;;;;;21.63;15.25;;;-4.20;99.90;;;;;;4876623;29;20472;-77
2022/03/05 04:42:59;;;;;;;18.58;11.75;;;-4.10;99.90;;;;;;4878335;29;20064;-77
2022/03/05 04:45:27;;;;;;;16.48;10.40;;;-4.10;99.90;;;;;;4877554;29;20045;-78
2022/03/05 04:47:55;;;;;;;20.75;11.43;;;-4.20;99.90;;;;;;4873705;29;20064;-78
2022/03/05 04:50:23;;;;;;;16.33;11.38;;;-4.30;99.90;;;;;;4864815;29;20762;-78
2022/03/05 04:52:51;;;;;;;34.22;8.88;;;-4.30;99.90;;;;;;4863455;29;20503;-77
2022/03/05 04:55:19;;;;;;;15.25;12.55;;;-4.40;99.90;;;;;;4877769;29;20065;-78
2022/03/05 04:57:47;;;;;;;19.13;10.15;;;-4.30;99.90;;;;;;4877002;29;20060;-77
2022/03/05 05:00:15;;;;;;;20.40;11.85;;;-4.40;99.90;;;;;;4877649;29;20048;-77
2022/03/05 05:02:43;;;;;;;25.20;12.82;;;-4.40;99.90;;;;;;4878290;29;20049;-77
2022/03/05 05:05:11;;;;;;;25.30;13.73;;;-4.50;99.90;;;;;;4877221;29;20049;-77
2022/03/05 05:07:41;;;;;;;20.88;10.30;;;-4.50;99.90;;;;;;4876997;29;20060;-77
2022/03/05 05:10:08;;;;;;;17.42;11.45;;;-4.50;99.90;;;;;;4851307;29;20041;-71
2022/03/05 05:12:36;;;;;;;26.27;13.18;;;-4.60;99.90;;;;;;4877488;29;20490;-72
2022/03/05 05:15:05;;;;;;;22.83;11.05;;;-4.70;99.90;;;;;;4862824;29;20053;-71
2022/03/05 05:17:36;;;;;;;16.98;9.32;;;-4.70;99.90;;;;;;4858375;29;20053;-71
2022/03/05 05:20:05;;;;;;;19.60;11.45;;;-4.80;99.90;;;;;;4848473;29;20057;-71
2022/03/05 05:22:33;;;;;;;31.38;13.85;;;-4.90;99.90;;;;;;4859360;29;20487;-72
2022/03/05 05:25:02;;;;;;;18.58;13.38;;;-4.80;99.90;;;;;;4858161;29;20050;-72
2022/03/05 05:27:36;;;;;;;13.15;10.27;;;-4.90;99.90;;;;;;4859006;29;20049;-71
2022/03/05 05:30:06;;;;;;;20.45;9.93;;;-4.90;99.90;;;;;;4867521;29;20079;-72
2022/03/05 05:32:34;;;;;;;15.63;10.63;;;-4.90;99.90;;;;;;4876547;29;20049;-71
2022/03/05 05:35:03;;;;;;;10.63;9.25;;;-5.00;99.90;;;;;;4877278;29;20049;-71
2022/03/05 05:37:31;;;;;;;16.83;11.95;;;-5.00;99.90;;;;;;4877023;29;20064;-71
2022/03/05 05:39:58;;;;;;;19.45;11.88;;;-5.10;99.90;;;;;;4875779;29;20048;-72
2022/03/05 05:42:26;;;;;;;28.23;11.80;;;-5.00;99.90;;;;;;4877278;29;20480;-72
2022/03/05 05:44:54;;;;;;;18.33;11.23;;;-4.90;99.90;;;;;;4876743;29;20049;-71
2022/03/05 05:47:22;;;;;;;14.77;11.48;;;-5.00;99.90;;;;;;4877466;29;20052;-72
2022/03/05 05:49:50;;;;;;;14.93;11.18;;;-5.10;99.90;;;;;;4875916;29;20056;-72
2022/03/05 05:52:18;;;;;;;22.90;11.10;;;-5.20;99.90;;;;;;4876844;29;20053;-72
2022/03/05 05:54:46;;;;;;;15.20;10.38;;;-5.20;99.90;;;;;;4876757;29;20486;-71
2022/03/05 05:57:13;;;;;;;22.88;10.20;;;-5.20;99.90;;;;;;4876411;29;20494;-72
2022/03/05 05:59:41;;;;;;;23.30;12.88;;;-5.20;99.90;;;;;;4876163;29;20049;-78
2022/03/05 06:02:10;;;;;;;23.33;10.48;;;-5.20;99.90;;;;;;4877097;29;20053;-77
2022/03/05 06:04:38;;;;;;;23.15;11.63;;;-5.20;99.90;;;;;;4876428;29;20049;-77
2022/03/05 06:07:05;;;;;;;18.75;10.98;;;-5.20;99.90;;;;;;4860133;29;20049;-77
2022/03/05 06:09:33;;;;;;;16.08;10.93;;;-5.10;99.90;;;;;;4875542;29;20057;-77
2022/03/05 06:12:01;;;;;;;24.50;12.23;;;-5.20;99.90;;;;;;4876070;29;20056;-71
2022/03/05 06:14:29;;;;;;;19.77;10.48;;;-5.10;99.90;;;;;;4876852;29;20075;-72
2022/03/05 06:16:56;;;;;;;17.15;11.25;;;-5.00;99.90;;;;;;4876420;29;20063;-72
2022/03/05 06:19:24;;;;;;;32.17;13.07;;;-4.90;99.90;;;;;;4876138;29;20632;-71
2022/03/05 06:21:53;;;;;;;22.73;10.65;;;-4.90;99.90;;;;;;4876027;29;20456;-71
2022/03/05 06:24:21;;;;;;;31.58;10.50;;;-4.90;99.90;;;;;;4875578;29;20052;-71
2022/03/05 06:26:48;;;;;;;28.42;11.93;;;-5.00;99.90;;;;;;4876096;29;20060;-71
2022/03/05 06:29:16;;;;;;;20.98;11.32;;;-5.00;99.90;;;;;;4875902;29;20446;-72
2022/03/05 06:31:44;;;;;;;26.85;13.68;;;-5.00;99.90;;;;;;4875495;29;20057;-72
2022/03/05 06:34:11;;;;;;;23.15;12.00;;;-4.90;99.90;;;;;;4876604;29;20526;-72
2022/03/05 06:36:39;;;;;;;18.95;10.60;;;-4.80;99.90;;;;;;4875811;29;20056;-72
2022/03/05 06:39:07;;;;;;;25.65;12.77;;;-4.70;99.90;;;;;;4875792;29;20048;-72
2022/03/05 06:41:34;;;;;;;21.75;10.40;;;-4.60;99.90;;;;;;4874898;29;20056;-71
2022/03/05 06:44:02;;;;;;;15.52;11.57;;;-4.40;99.90;;;;;;4875674;29;20406;-72
2022/03/05 06:46:31;;;;;;;20.27;11.88;;;-4.10;99.90;;;;;;4876543;29;20068;-72
2022/03/05 06:48:59;;;;;;;22.52;11.95;;;-4.00;99.90;;;;;;4875423;29;20063;-71
2022/03/05 06:51:26;;;;;;;20.48;12.60;;;-3.80;99.90;;;;;;4876077;29;20471;-71
2022/03/05 06:53:54;;;;;;;24.50;15.35;;;-3.70;99.90;;;;;;4875849;29;20057;-77
2022/03/05 06:56:22;;;;;;;17.85;12.00;;;-3.50;99.90;;;;;;4875355;29;20053;-75
2022/03/05 06:58:50;;;;;;;19.80;10.60;;;-3.30;99.90;;;;;;4876120;29;20052;-77
2022/03/05 07:01:18;;;;;;;24.48;15.20;;;-3.20;99.90;;;;;;4874337;29;20653;-77
2022/03/05 07:03:46;;;;;;;19.70;10.70;;;-2.90;99.90;;;;;;4875421;29;20052;-77
2022/03/05 07:06:13;;;;;;;33.22;15.10;;;-2.70;99.90;;;;;;4867726;29;20052;-77
2022/03/05 07:08:41;;;;;;;15.95;10.27;;;-2.60;99.90;;;;;;4874840;29;20452;-78
2022/03/05 07:11:09;;;;;;;24.88;12.02;;;-2.40;99.90;;;;;;4875302;29;20506;-83
2022/03/05 07:13:37;;;;;;;33.15;16.27;;;-1.90;99.90;;;;;;4848268;29;20050;-77
2022/03/05 07:16:05;;;;;;;21.73;12.40;;;-1.70;99.90;;;;;;4867035;29;20059;-78
2022/03/05 07:18:33;;;;;;;8.75;8.02;;;-1.50;99.90;;;;;;4874391;29;20045;-82
2022/03/05 07:21:01;;;;;;;16.70;10.20;;;-1.30;99.90;;;;;;4853490;29;20052;-84
2022/03/05 07:23:29;;;;;;;25.08;11.60;;;-1.10;99.90;;;;;;4854608;29;20056;-83
2022/03/05 07:25:57;;;;;;;22.10;13.40;;;-0.90;99.90;;;;;;4864813;29;20045;-86
2022/03/05 07:28:24;;;;;;;16.10;10.82;;;-0.90;99.90;;;;;;4846683;29;20515;-87
2022/03/05 07:30:54;;;;;;;19.77;12.32;;;-0.80;99.90;;;;;;4827015;29;20428;-86
2022/03/05 07:33:22;;;;;;;13.13;11.05;;;-0.60;99.90;;;;;;4825643;29;20053;-85
2022/03/05 07:35:50;;;;;;;19.20;11.43;;;-0.50;99.90;;;;;;4810246;29;20507;-78
2022/03/05 07:38:18;;;;;;;12.52;10.07;;;-0.40;99.90;;;;;;4857118;29;20045;-76
2022/03/05 07:40:46;;;;;;;14.15;12.75;;;-0.20;99.90;;;;;;4856210;29;20046;-77
2022/03/05 07:43:14;;;;;;;8.07;7.40;;;-0.10;99.90;;;;;;4874475;29;20060;-77
2022/03/05 07:45:41;;;;;;;24.20;12.35;;;-0.10;99.90;;;;;;4861943;29;20056;-77
2022/03/05 07:48:09;;;;;;;20.25;11.00;;;0.00;99.90;;;;;;4878335;29;20052;-77
2022/03/05 07:50:37;;;;;;;18.50;11.40;;;0.20;99.90;;;;;;4863270;29;20061;-77
2022/03/05 07:53:05;;;;;;;15.55;13.27;;;0.30;99.90;;;;;;4860236;29;20543;-78
2022/03/05 07:55:32;;;;;;;14.68;11.13;;;0.30;99.90;;;;;;4867304;29;20049;-78
2022/03/05 07:58:00;;;;;;;20.13;13.13;;;0.40;99.90;;;;;;4874401;29;20049;-78
2022/03/05 08:00:28;;;;;;;16.55;10.60;;;0.60;99.90;;;;;;4878374;29;20049;-78
2022/03/05 08:02:56;;;;;;;22.33;13.30;;;0.60;99.90;;;;;;4843793;29;20057;-78
2022/03/05 08:05:25;;;;;;;15.40;13.90;;;0.60;99.90;;;;;;4859783;29;20412;-77
2022/03/05 08:07:54;;;;;;;19.20;15.27;;;0.70;99.90;;;;;;4859805;29;20045;-77
2022/03/05 08:10:22;;;;;;;24.02;14.88;;;0.80;99.90;;;;;;4843001;29;20053;-78
2022/03/05 08:12:50;;;;;;;18.50;11.65;;;0.80;99.90;;;;;;4843088;29;20046;-77
2022/03/05 08:15:17;;;;;;;19.63;12.55;;;0.60;99.90;;;;;;4860376;29;20053;-78
2022/03/05 08:18:01;;;;;;;19.65;13.88;;;0.60;99.90;;;;;;4861412;29;20057;-78
2022/03/05 08:20:31;;;;;;;17.40;10.13;;;0.80;99.90;;;;;;4863563;29;20045;-77
2022/03/05 08:22:59;;;;;;;13.20;11.55;;;1.00;99.90;;;;;;4869146;29;20384;-78
2022/03/05 08:25:28;;;;;;;23.42;16.25;;;1.20;99.90;;;;;;4863738;29;20053;-78
2022/03/05 08:27:56;;;;;;;16.95;9.90;;;1.30;99.90;;;;;;4859791;29;20067;-78
2022/03/05 08:30:24;;;;;;;27.65;12.07;;;1.20;99.90;;;;;;4843743;29;20081;-77
2022/03/05 08:32:52;;;;;;;28.13;17.73;;;1.30;99.90;;;;;;4867157;29;20673;-78
2022/03/05 08:35:21;;;;;;;22.90;13.20;;;1.20;99.90;;;;;;4861891;29;20041;-78
2022/03/05 08:37:49;;;;;;;21.23;15.38;;;1.30;99.90;;;;;;4874326;29;20541;-78
2022/03/05 08:40:17;;;;;;;17.65;11.70;;;1.40;99.90;;;;;;4877113;29;20049;-78
2022/03/05 08:42:46;;;;;;;20.38;12.15;;;1.60;99.90;;;;;;4878500;29;20237;-78
2022/03/05 08:45:14;;;;;;;21.98;13.00;;;1.30;99.90;;;;;;4877974;29;20048;-78
2022/03/05 08:47:44;;;;;;;21.38;18.27;;;1.30;99.90;;;;;;4873436;29;20048;-78
2022/03/05 08:50:12;;;;;;;18.50;13.98;;;1.60;99.90;;;;;;4833038;29;20084;-82
2022/03/05 08:52:41;;;;;;;19.25;16.02;;;1.40;99.90;;;;;;4860412;29;20399;-81
2022/03/05 08:55:11;;;;;;;17.35;11.82;;;1.30;99.90;;;;;;4845203;29;20069;-78
2022/03/05 08:57:39;;;;;;;25.65;10.98;;;1.30;99.90;;;;;;4858945;29;20058;-80
2022/03/05 09:00:09;;;;;;;26.70;15.23;;;1.40;99.90;;;;;;4844622;29;20045;-82
2022/03/05 09:02:38;;;;;;;17.67;10.10;;;1.20;99.90;;;;;;4832593;29;20101;-81
2022/03/05 09:05:06;;;;;;;20.02;9.73;;;1.40;99.90;;;;;;4857268;29;20065;-80
2022/03/05 09:07:34;;;;;;;13.48;12.15;;;1.30;99.90;;;;;;4812708;29;20511;-81
2022/03/05 09:10:03;;;;;;;17.05;10.57;;;1.50;99.90;;;;;;4847896;29;20049;-82
2022/03/05 09:12:31;;;;;;;24.17;17.92;;;1.80;99.90;;;;;;4858884;29;20041;-82
2022/03/05 09:14:58;;;;;;;29.70;20.30;;;2.00;99.90;;;;;;4849605;29;20057;-80
2022/03/05 09:17:26;;;;;;;17.67;9.20;;;1.90;99.90;;;;;;4841096;29;20048;-82
2022/03/05 09:19:54;;;;;;;23.33;15.07;;;1.90;99.90;;;;;;4875243;29;20049;-83
2022/03/05 09:22:22;;;;;;;13.10;8.65;;;2.30;99.90;;;;;;4875110;29;20057;-83
2022/03/05 09:24:49;;;;;;;22.55;12.77;;;2.30;99.90;;;;;;4861840;29;20053;-84
2022/03/05 09:27:17;;;;;;;21.23;13.10;;;2.50;99.90;;;;;;4859561;29;20061;-84
2022/03/05 09:29:45;;;;;;;16.30;7.60;;;2.60;99.90;;;;;;4865762;29;20041;-84
2022/03/05 09:32:13;;;;;;;18.23;10.68;;;2.60;99.90;;;;;;4858631;29;20496;-80
2022/03/05 09:34:40;;;;;;;14.18;12.48;;;2.70;99.90;;;;;;4848344;29;20045;-81
2022/03/05 09:37:08;;;;;;;19.08;10.88;;;2.30;99.90;;;;;;4876225;29;20056;-80
2022/03/05 09:39:37;;;;;;;15.15;12.45;;;2.50;99.90;;;;;;4874669;29;20495;-80
2022/03/05 09:42:05;;;;;;;18.02;14.00;;;2.70;99.90;;;;;;4877030;29;20087;-79
2022/03/05 09:44:35;;;;;;;12.90;10.45;;;2.80;99.90;;;;;;4876998;29;20194;-78
2022/03/05 09:47:03;;;;;;;15.20;9.82;;;2.70;99.90;;;;;;4845366;29;20057;-81
2022/03/05 09:49:35;;;;;;;21.13;11.88;;;2.70;99.90;;;;;;4868909;29;20066;-83
2022/03/05 09:52:03;;;;;;;10.57;8.48;;;2.70;99.90;;;;;;4874615;29;20041;-83
2022/03/05 09:54:32;;;;;;;28.95;12.40;;;2.70;99.90;;;;;;4876243;29;20037;-82
2022/03/05 09:56:59;;;;;;;13.63;10.55;;;2.30;99.90;;;;;;4865375;29;20548;-82
2022/03/05 09:59:27;;;;;;;22.98;14.85;;;2.30;99.90;;;;;;4876343;29;20053;-75
2022/03/05 10:01:55;;;;;;;15.15;11.35;;;2.60;99.90;;;;;;4860394;29;20415;-75
2022/03/05 10:04:24;;;;;;;10.02;6.88;;;2.10;99.90;;;;;;4858341;29;20060;-74
2022/03/05 10:07:15;;;;;;;12.45;8.32;;;1.90;99.90;;;;;;4864012;29;20054;-75
2022/03/05 10:09:45;;;;;;;9.82;8.77;;;2.00;99.90;;;;;;4873750;29;20060;-75
2022/03/05 10:12:35;;;;;;;9.95;6.60;;;2.20;99.90;;;;;;4874015;29;20535;-75
2022/03/05 10:15:21;;;;;;;15.50;8.18;;;2.30;99.90;;;;;;4872455;29;20052;-75
2022/03/05 10:17:58;;;;;;;7.80;6.95;;;2.20;99.90;;;;;;4875769;29;20053;-76
2022/03/05 10:20:28;;;;;;;23.08;10.90;;;2.10;99.90;;;;;;4833536;29;20056;-77
2022/03/05 10:22:59;;;;;;;11.30;7.30;;;2.10;99.90;;;;;;4860307;29;20053;-76
2022/03/05 10:25:28;;;;;;;15.52;9.02;;;2.00;99.90;;;;;;4870190;29;20061;-77
2022/03/05 10:28:09;;;;;;;13.85;7.72;;;2.10;99.90;;;;;;4876137;29;20056;-77
2022/03/05 10:30:40;;;;;;;17.83;7.68;;;2.10;99.90;;;;;;4876910;29;20059;-78
2022/03/05 10:33:21;;;;;;;20.02;15.85;;;2.10;99.90;;;;;;4842958;29;20124;-76
2022/03/05 10:35:49;;;;;;;;;;;2.10;99.90;;;;;;4875003;29;20049;-77
2022/03/05 10:38:17;;;;;;;12.88;7.40;;;2.00;99.90;;;;;;4875163;29;19939;-77
2022/03/05 10:40:53;;;;;;;11.98;7.90;;;2.00;99.90;;;;;;4875475;29;20045;-77
2022/03/05 10:43:22;;;;;;;7.55;5.25;;;2.10;99.90;;;;;;4876837;29;20052;-78
2022/03/05 10:45:50;;;;;;;9.05;7.32;;;2.30;99.90;;;;;;4876252;29;20517;-78
2022/03/05 10:48:47;;;;;;;9.65;5.90;;;2.40;99.90;;;;;;4859387;29;20057;-78
2022/03/05 10:51:17;;;;;;;9.27;5.43;;;2.40;99.90;;;;;;4846282;29;20057;-78
2022/03/05 10:53:48;;;;;;;7.63;5.07;;;2.20;99.90;;;;;;4857690;29;20054;-78
2022/03/05 10:56:25;;;;;;;7.38;5.25;;;2.00;99.90;;;;;;4871464;29;20075;-78
2022/03/05 10:59:10;;;;;;;12.38;8.23;;;2.00;99.90;;;;;;4857294;29;20139;-77
2022/03/05 11:01:41;;;;;;;14.20;10.30;;;2.00;99.90;;;;;;4857308;29;20049;-77
2022/03/05 11:04:11;;;;;;;11.18;9.18;;;2.40;99.90;;;;;;4857720;29;20507;-77
2022/03/05 11:06:40;;;;;;;9.20;6.50;;;2.70;99.90;;;;;;4857847;29;20060;-78
2022/03/05 11:09:10;;;;;;;6.85;6.03;;;2.90;99.90;;;;;;4857344;29;20045;-78
2022/03/05 11:11:40;;;;;;;9.38;5.10;;;3.00;99.90;;;;;;4856760;29;20053;-77
2022/03/05 11:14:13;;;;;;;9.38;6.47;;;3.20;99.90;;;;;;4872559;29;20053;-78
2022/03/05 11:16:43;;;;;;;12.65;7.03;;;3.30;99.90;;;;;;4873837;29;20488;-78
2022/03/05 11:19:11;;;;;;;9.80;7.63;;;3.30;99.90;;;;;;4872404;29;20053;-78
2022/03/05 11:21:39;;;;;;;7.10;5.70;;;3.50;99.90;;;;;;4862301;29;20499;-78
2022/03/05 11:24:07;;;;;;;10.00;6.72;;;3.80;99.90;;;;;;4879447;29;20041;-78
2022/03/05 11:26:37;;;;;;;16.13;7.35;;;3.80;97.60;;;;;;4879244;29;20730;-78
2022/03/05 11:29:27;;;;;;;5.47;4.65;;;3.30;97.60;;;;;;4878713;29;20045;-78
2022/03/05 11:32:14;;;;;;;9.27;6.53;;;3.40;99.40;;;;;;4879327;29;20049;-78
2022/03/05 11:34:48;;;;;;;9.70;7.38;;;3.10;98.70;;;;;;4879257;29;20045;-78
2022/03/05 11:37:33;;;;;;;5.35;4.85;;;2.90;99.20;;;;;;4879246;29;20526;-78
2022/03/05 11:40:03;;;;;;;6.93;6.13;;;2.80;99.90;;;;;;4878275;29;20048;-78
2022/03/05 11:42:34;;;;;;;12.43;7.60;;;2.80;98.50;;;;;;4879515;29;20511;-77
2022/03/05 11:45:27;;;;;;;11.25;6.18;;;2.70;99.00;;;;;;4862459;29;20389;-79
2022/03/05 11:48:22;;;;;;;11.63;6.57;;;2.50;99.90;;;;;;4878864;29;20056;-78
2022/03/05 11:51:06;;;;;;;9.27;5.22;;;2.80;99.90;;;;;;4878929;29;20060;-78
2022/03/05 11:53:34;;;;;;;10.73;7.43;;;3.20;99.90;;;;;;4878641;29;20056;-79
2022/03/05 11:56:24;;;;;;;11.07;6.60;;;3.60;97.80;;;;;;4878255;29;20037;-79
2022/03/05 11:58:52;;;;;;;6.65;5.15;;;3.60;99.90;;;;;;4860411;29;20053;-79
2022/03/05 12:01:50;;;;;;;8.15;5.05;;;3.60;96.90;;;;;;4860234;29;20503;-78
2022/03/05 12:04:23;;;;;;;7.57;6.88;;;3.20;98.10;;;;;;4845888;29;20054;-79
2022/03/05 12:06:54;;;;;;;4.57;4.15;;;3.50;97.70;;;;;;4868084;29;20049;-79
2022/03/05 12:09:35;;;;;;;8.35;7.43;;;3.80;97.60;;;;;;4878111;29;20053;-78
2022/03/05 12:12:06;;;;;;;11.32;6.47;;;3.50;96.80;;;;;;4868848;29;20889;-80
2022/03/05 12:14:59;;;;;;;10.30;6.18;;;3.30;98.50;;;;;;4864323;29;20044;-78
2022/03/05 12:17:36;;;;;;;8.80;5.82;;;3.30;98.70;;;;;;4857870;29;20053;-78
2022/03/05 12:20:10;;;;;;;6.35;4.57;;;3.20;98.10;;;;;;4857887;29;20436;-78
2022/03/05 12:22:49;;;;;;;8.30;6.78;;;3.40;98.60;;;;;;4857398;29;20057;-78
2022/03/05 12:25:18;;;;;;;11.93;6.40;;;3.50;97.20;;;;;;4857710;29;20048;-78
2022/03/05 12:27:50;;;;;;;7.90;5.35;;;3.70;97.90;;;;;;4864265;29;20407;-78
2022/03/05 12:30:30;;;;;;;9.93;6.72;;;3.60;96.80;;;;;;4858428;29;20074;-78
2022/03/05 12:33:07;;;;;;;11.68;6.05;;;3.60;98.30;;;;;;4860358;29;20056;-78
2022/03/05 12:35:38;;;;;;;12.32;8.00;;;3.80;96.90;;;;;;4861478;29;20774;-77
2022/03/05 12:38:07;;;;;;;6.80;4.80;;;3.70;97.00;;;;;;4859385;29;20040;-78
2022/03/05 12:40:35;;;;;;;11.57;8.55;;;3.80;96.60;;;;;;4861880;29;20049;-78
2022/03/05 12:43:05;;;;;;;8.73;5.82;;;3.70;96.50;;;;;;4862161;29;20614;-78
2022/03/05 12:45:37;;;;;;;8.85;4.78;;;3.80;97.10;;;;;;4869267;29;20084;-78
2022/03/05 12:48:12;;;;;;;17.00;11.43;;;3.90;97.90;;;;;;4874273;29;20041;-78
2022/03/05 12:50:51;;;;;;;7.38;4.13;;;3.80;96.10;;;;;;4875678;29;20052;-77
2022/03/05 12:53:24;;;;;;;6.32;4.95;;;3.70;96.40;;;;;;4859031;29;20049;-78
2022/03/05 12:55:57;;;;;;;11.10;7.47;;;3.70;97.00;;;;;;4874948;29;20053;-78